createdAt,value
2018-01-13T00:01:50.097Z,12.02
2018-01-13T00:04:17.648Z,11.82
2018-01-13T00:06:45.255Z,9.95
2018-01-13T00:09:12.814Z,13.00
2018-01-13T00:11:40.354Z,10.93
2018-01-13T00:14:08.693Z,10.95
2018-01-13T00:16:36.248Z,12.20
2018-01-13T00:19:03.815Z,11.40
2018-01-13T00:21:31.356Z,10.40
2018-01-13T00:23:58.895Z,12.20
2018-01-13T00:26:26.458Z,11.98
2018-01-13T00:28:53.999Z,9.75
2018-01-13T00:31:22.308Z,11.40
2018-01-13T00:33:49.889Z,11.80
2018-01-13T00:36:17.459Z,10.20
2018-01-13T00:38:45.008Z,10.35
2018-01-13T00:41:12.581Z,10.82
2018-01-13T00:43:40.141Z,11.85
2018-01-13T00:46:07.706Z,11.93
2018-01-13T00:48:35.256Z,9.55
2018-01-13T00:51:02.817Z,8.40
2018-01-13T00:53:30.412Z,8.25
2018-01-13T00:55:58.729Z,9.00
2018-01-13T00:58:26.283Z,8.13
2018-01-13T01:00:53.857Z,9.13
2018-01-13T01:03:21.396Z,8.35
2018-01-13T01:05:48.961Z,8.85
2018-01-13T01:08:16.545Z,8.40
2018-01-13T01:10:44.102Z,9.18
2018-01-13T01:13:11.663Z,8.73
2018-01-13T01:15:39.237Z,8.73
2018-01-13T01:18:06.789Z,8.40
2018-01-13T01:20:34.351Z,7.10
2018-01-13T01:23:01.915Z,7.57
2018-01-13T01:25:29.532Z,8.00
2018-01-13T01:27:57.082Z,7.85
2018-01-13T01:30:24.652Z,8.07
2018-01-13T01:32:52.228Z,6.90
2018-01-13T01:35:19.791Z,8.50
2018-01-13T01:37:47.359Z,9.05
2018-01-13T01:40:14.953Z,8.65
2018-01-13T01:42:43.294Z,8.52
2018-01-13T01:45:12.365Z,8.07
2018-01-13T01:47:39.937Z,8.40
2018-01-13T01:50:07.488Z,8.93
2018-01-13T01:52:35.051Z,8.00
2018-01-13T01:55:02.595Z,6.68
2018-01-13T01:57:30.136Z,7.47
2018-01-13T01:59:58.498Z,7.55
2018-01-13T02:02:26.839Z,8.75
2018-01-13T02:04:54.407Z,8.60
2018-01-13T02:07:21.988Z,8.15
2018-01-13T02:09:49.555Z,8.60
2018-01-13T02:12:17.885Z,7.85
2018-01-13T02:14:45.445Z,7.90
2018-01-13T02:17:13.002Z,8.40
2018-01-13T02:19:40.559Z,7.70
2018-01-13T02:22:08.128Z,7.47
2018-01-13T02:24:35.713Z,8.75
2018-01-13T02:27:03.261Z,8.85
2018-01-13T02:29:30.831Z,8.98
2018-01-13T02:31:58.414Z,8.18
2018-01-13T02:34:26.728Z,8.07
2018-01-13T02:36:54.301Z,8.48
2018-01-13T02:39:21.867Z,7.93
2018-01-13T02:41:49.417Z,7.97
2018-01-13T02:44:16.999Z,8.23
2018-01-13T02:46:44.563Z,7.32
2018-01-13T02:49:12.155Z,7.97
2018-01-13T02:51:40.491Z,7.65
2018-01-13T02:54:08.067Z,8.10
2018-01-13T02:56:35.635Z,8.10
2018-01-13T02:59:03.988Z,8.18
2018-01-13T03:01:31.545Z,7.62
2018-01-13T03:03:59.121Z,7.95
2018-01-13T03:06:26.673Z,7.75
2018-01-13T03:08:54.267Z,6.85
2018-01-13T03:11:22.577Z,8.85
2018-01-13T03:13:50.115Z,7.90
2018-01-13T03:16:17.700Z,8.93
2018-01-13T03:18:45.239Z,8.98
2018-01-13T03:21:12.823Z,8.45
2018-01-13T03:23:40.386Z,8.73
2018-01-13T03:26:07.954Z,9.70
2018-01-13T03:28:35.540Z,8.82
2018-01-13T03:31:03.106Z,7.53
2018-01-13T03:33:30.680Z,8.23
2018-01-13T03:35:59.126Z,8.00
2018-01-13T03:38:26.676Z,7.70
2018-01-13T03:40:54.249Z,9.00
2018-01-13T03:43:21.798Z,8.40
2018-01-13T03:45:49.387Z,8.55
2018-01-13T03:48:16.932Z,10.30
2018-01-13T03:50:44.481Z,8.15
2018-01-13T03:53:12.038Z,8.63
2018-01-13T03:55:39.597Z,8.75
2018-01-13T03:58:07.168Z,8.23
2018-01-13T04:00:34.740Z,9.43
2018-01-13T04:03:02.284Z,9.13
2018-01-13T04:05:29.850Z,8.88
2018-01-13T04:07:57.419Z,9.50
2018-01-13T04:10:24.968Z,8.32
2018-01-13T04:12:52.545Z,9.10
2018-01-13T04:15:20.891Z,8.65
2018-01-13T04:17:48.451Z,9.30
2018-01-13T04:20:16.015Z,9.40
2018-01-13T04:22:43.587Z,8.50
2018-01-13T04:25:11.161Z,8.80
2018-01-13T04:27:39.484Z,9.05
2018-01-13T04:30:07.026Z,9.38
2018-01-13T04:32:34.596Z,8.60
2018-01-13T04:35:02.136Z,8.90
2018-01-13T04:37:30.472Z,11.02
2018-01-13T04:39:58.012Z,9.80
2018-01-13T04:42:25.575Z,8.48
2018-01-13T04:44:53.169Z,9.57
2018-01-13T04:47:20.725Z,9.38
2018-01-13T04:49:49.060Z,9.43
2018-01-13T04:52:16.599Z,10.00
2018-01-13T04:54:44.138Z,10.18
2018-01-13T04:57:12.475Z,10.93
2018-01-13T04:59:40.047Z,9.20
2018-01-13T05:02:07.611Z,9.75
2018-01-13T05:04:35.147Z,9.70
2018-01-13T05:07:02.691Z,10.07
2018-01-13T05:09:30.282Z,9.77
2018-01-13T05:11:57.838Z,9.85
2018-01-13T05:14:25.407Z,10.38
2018-01-13T05:16:52.980Z,9.90
2018-01-13T05:19:22.233Z,9.40
2018-01-13T05:21:49.798Z,8.85
2018-01-13T05:24:17.357Z,9.95
2018-01-13T05:26:44.914Z,9.65
2018-01-13T05:29:12.466Z,9.18
2018-01-13T05:31:40.032Z,8.85
2018-01-13T05:34:07.586Z,9.00
2018-01-13T05:36:35.182Z,8.18
2018-01-13T05:39:02.737Z,8.57
2018-01-13T05:41:30.293Z,8.60
2018-01-13T05:43:57.865Z,8.98
2018-01-13T05:46:25.441Z,8.52
2018-01-13T05:48:53.802Z,8.25
2018-01-13T05:51:21.412Z,8.32
2018-01-13T05:53:49.725Z,7.43
2018-01-13T05:56:17.315Z,7.53
2018-01-13T05:58:45.640Z,7.75
2018-01-13T06:01:13.207Z,7.18
2018-01-13T06:03:40.799Z,7.40
2018-01-13T06:06:08.356Z,7.57
2018-01-13T06:08:35.900Z,7.00
2018-01-13T06:11:03.458Z,8.27
2018-01-13T06:13:31.031Z,7.40
2018-01-13T06:15:58.618Z,7.90
2018-01-13T06:18:26.951Z,7.97
2018-01-13T06:20:54.562Z,8.20
2018-01-13T06:23:22.890Z,7.72
2018-01-13T06:25:50.430Z,9.50
2018-01-13T06:28:18.152Z,8.60
2018-01-13T06:30:46.480Z,10.45
2018-01-13T06:33:14.015Z,9.02
2018-01-13T06:35:43.106Z,8.60
2018-01-13T06:38:10.644Z,8.60
2018-01-13T06:40:38.968Z,10.68
2018-01-13T06:43:06.533Z,8.98
2018-01-13T06:45:34.129Z,8.48
2018-01-13T06:48:01.674Z,8.93
2018-01-13T06:50:29.240Z,10.27
2018-01-13T06:52:56.801Z,10.93
2018-01-13T06:55:24.381Z,9.38
2018-01-13T06:57:52.701Z,10.10
2018-01-13T07:00:20.247Z,10.27
2018-01-13T07:02:47.808Z,9.52
2018-01-13T07:05:15.407Z,11.38
2018-01-13T07:07:43.582Z,9.43
2018-01-13T07:10:11.119Z,9.40
2018-01-13T07:12:38.772Z,9.48
2018-01-13T07:15:06.352Z,10.50
2018-01-13T07:17:33.910Z,9.95
2018-01-13T07:20:01.479Z,9.52
2018-01-13T07:22:29.138Z,10.30
2018-01-13T07:24:56.720Z,10.77
2018-01-13T07:27:24.290Z,11.32
2018-01-13T07:29:52.618Z,12.63
2018-01-13T07:32:20.180Z,13.23
2018-01-13T07:34:47.767Z,10.70
2018-01-13T07:37:15.627Z,12.10
2018-01-13T07:39:43.214Z,14.30
2018-01-13T07:42:11.547Z,13.13
2018-01-13T07:44:39.165Z,12.02
2018-01-13T07:47:07.545Z,11.40
2018-01-13T07:49:35.105Z,11.55
2018-01-13T07:52:02.690Z,11.73
2018-01-13T07:54:30.259Z,11.93
2018-01-13T07:56:57.823Z,13.82
2018-01-13T07:59:25.405Z,12.65
2018-01-13T08:01:52.956Z,14.75
2018-01-13T08:04:20.533Z,12.77
2018-01-13T08:06:48.236Z,14.90
2018-01-13T08:09:15.813Z,15.82
2018-01-13T08:11:43.375Z,15.25
2018-01-13T08:14:10.915Z,13.82
2018-01-13T08:16:38.476Z,14.98
2018-01-13T08:19:06.378Z,13.80
2018-01-13T08:21:33.943Z,14.93
2018-01-13T08:24:01.520Z,15.43
2018-01-13T08:26:29.064Z,13.75
2018-01-13T08:28:56.624Z,12.50
2018-01-13T08:31:24.215Z,13.13
2018-01-13T08:33:52.563Z,13.38
2018-01-13T08:36:20.122Z,11.25
2018-01-13T08:38:47.702Z,11.45
2018-01-13T08:41:15.247Z,11.45
2018-01-13T08:43:42.796Z,10.77
2018-01-13T08:46:10.378Z,10.43
2018-01-13T08:48:37.930Z,9.70
2018-01-13T08:51:05.497Z,9.38
2018-01-13T08:53:33.077Z,11.02
2018-01-13T08:56:01.389Z,8.35
2018-01-13T08:58:28.952Z,9.85
2018-01-13T09:00:56.547Z,10.68
2018-01-13T09:03:24.115Z,9.77
2018-01-13T09:05:51.673Z,8.23
2018-01-13T09:08:19.271Z,9.35
2018-01-13T09:10:46.825Z,8.82
2018-01-13T09:13:16.846Z,8.93
2018-01-13T09:15:44.454Z,9.30
2018-01-13T09:18:12.028Z,9.30
2018-01-13T09:20:39.617Z,10.38
2018-01-13T09:23:08.334Z,9.15
2018-01-13T09:25:39.101Z,8.80
2018-01-13T09:28:07.331Z,10.13
2018-01-13T09:30:34.885Z,9.82
2018-01-13T09:33:02.447Z,8.80
2018-01-13T09:35:30.029Z,10.15
2018-01-13T09:37:57.628Z,9.27
2018-01-13T09:40:25.210Z,8.68
2018-01-13T09:42:53.533Z,9.20
2018-01-13T09:45:21.130Z,8.25
2018-01-13T09:47:48.682Z,7.87
2018-01-13T09:50:16.228Z,7.25
2018-01-13T09:52:43.814Z,7.80
2018-01-13T09:55:12.146Z,7.43
2018-01-13T09:57:39.710Z,7.72
2018-01-13T10:00:07.285Z,8.00
2018-01-13T10:02:34.837Z,8.15
2018-01-13T10:05:02.400Z,7.05
2018-01-13T10:07:29.972Z,6.87
2018-01-13T10:09:57.534Z,6.57
2018-01-13T10:12:25.155Z,7.60
2018-01-13T10:14:52.728Z,6.60
2018-01-13T10:17:20.275Z,6.07
2018-01-13T10:19:48.598Z,6.65
2018-01-13T10:22:16.175Z,6.40
2018-01-13T10:24:44.502Z,6.45
2018-01-13T10:27:12.046Z,5.85
2018-01-13T10:29:39.616Z,5.32
2018-01-13T10:32:07.151Z,5.15
2018-01-13T10:34:34.695Z,5.45
2018-01-13T10:37:03.041Z,6.07
2018-01-13T10:39:30.644Z,5.95
2018-01-13T10:41:58.954Z,5.75
2018-01-13T10:44:26.606Z,5.57
2018-01-13T10:46:54.170Z,6.25
2018-01-13T10:49:21.702Z,5.87
2018-01-13T10:51:50.168Z,6.68
2018-01-13T10:54:18.524Z,6.00
2018-01-13T10:56:46.075Z,6.62
2018-01-13T10:59:17.754Z,6.07
2018-01-13T11:04:48.429Z,6.62
2018-01-13T11:10:17.668Z,6.50
2018-01-13T11:12:45.217Z,7.20
2018-01-13T11:15:12.777Z,6.30
2018-01-13T11:17:40.349Z,6.18
2018-01-13T11:20:08.678Z,6.25
2018-01-13T11:22:36.232Z,9.05
2018-01-13T11:25:03.796Z,8.48
2018-01-13T11:27:31.352Z,6.57
2018-01-13T11:29:58.895Z,7.30
2018-01-13T11:32:26.465Z,6.20
2018-01-13T11:34:54.029Z,6.70
2018-01-13T11:37:21.597Z,7.15
2018-01-13T11:39:49.172Z,7.20
2018-01-13T11:42:16.738Z,7.10
2018-01-13T11:44:44.275Z,7.35
2018-01-13T11:47:11.859Z,7.93
2018-01-13T11:49:39.400Z,7.37
2018-01-13T11:52:06.992Z,8.43
2018-01-13T11:54:34.553Z,8.40
2018-01-13T11:57:02.091Z,8.98
2018-01-13T11:59:29.652Z,8.55
2018-01-13T12:01:57.187Z,7.97
2018-01-13T12:04:24.883Z,10.05
2018-01-13T12:06:52.830Z,7.95
2018-01-13T12:09:20.419Z,7.70
2018-01-13T12:11:47.986Z,8.43
2018-01-13T12:14:15.546Z,8.07
2018-01-13T12:16:43.132Z,7.70
2018-01-13T12:19:11.435Z,7.47
2018-01-13T12:21:38.989Z,8.15
2018-01-13T12:24:06.563Z,9.30
2018-01-13T12:26:34.108Z,9.38
2018-01-13T12:29:01.699Z,8.35
2018-01-13T12:31:29.257Z,8.82
2018-01-13T12:33:56.810Z,9.93
2018-01-13T12:36:24.371Z,9.45
2018-01-13T12:38:51.925Z,9.13
2018-01-13T12:41:19.478Z,9.25
2018-01-13T12:43:47.038Z,8.75
2018-01-13T12:46:14.575Z,8.25
2018-01-13T12:48:42.248Z,9.07
2018-01-13T12:51:09.822Z,7.85
2018-01-13T12:53:37.381Z,9.10
2018-01-13T12:56:04.947Z,7.68
2018-01-13T12:58:32.515Z,9.45
2018-01-13T13:01:00.098Z,8.65
2018-01-13T13:03:27.663Z,7.80
2018-01-13T13:05:55.250Z,7.72
2018-01-13T13:08:22.809Z,8.70
2018-01-13T13:10:50.365Z,8.00
2018-01-13T13:13:18.000Z,7.62
2018-01-13T13:15:45.518Z,8.38
2018-01-13T13:18:13.077Z,9.00
2018-01-13T13:20:40.635Z,11.77
2018-01-13T13:23:08.196Z,9.07
2018-01-13T13:25:35.768Z,9.90
2018-01-13T13:28:03.310Z,9.65
2018-01-13T13:30:30.853Z,8.40
2018-01-13T13:32:58.450Z,9.35
2018-01-13T13:35:25.989Z,8.68
2018-01-13T13:37:53.531Z,7.75
2018-01-13T13:40:21.110Z,8.68
2018-01-13T13:42:48.770Z,8.32
2018-01-13T13:45:16.320Z,9.52
2018-01-13T13:47:43.909Z,8.52
2018-01-13T13:50:11.444Z,9.45
2018-01-13T13:52:39.012Z,9.20
2018-01-13T13:55:06.584Z,9.82
2018-01-13T13:57:34.141Z,8.60
2018-01-13T14:00:01.697Z,9.43
2018-01-13T14:02:29.266Z,8.50
2018-01-13T14:04:56.831Z,9.90
2018-01-13T14:07:24.395Z,9.15
2018-01-13T14:09:51.953Z,10.63
2018-01-13T14:12:19.519Z,8.60
2018-01-13T14:14:47.074Z,10.00
2018-01-13T14:17:14.611Z,9.35
2018-01-13T14:19:42.167Z,9.63
2018-01-13T14:22:09.741Z,10.95
2018-01-13T14:24:38.819Z,9.20
2018-01-13T14:27:06.383Z,10.13
2018-01-13T14:29:33.958Z,10.27
2018-01-13T14:32:01.514Z,11.50
2018-01-13T14:34:29.075Z,10.63
2018-01-13T14:36:56.628Z,9.05
2018-01-13T14:39:24.201Z,10.35
2018-01-13T14:41:51.777Z,9.80
2018-01-13T14:44:19.332Z,10.77
2018-01-13T14:46:46.917Z,10.88
2018-01-13T14:49:15.232Z,11.32
2018-01-13T14:51:42.778Z,11.95
2018-01-13T14:54:10.372Z,10.73
2018-01-13T14:56:37.938Z,11.77
2018-01-13T14:59:05.493Z,10.50
2018-01-13T15:01:33.077Z,10.68
2018-01-13T15:04:00.629Z,11.12
2018-01-13T15:06:28.189Z,11.60
2018-01-13T15:08:55.751Z,10.77
2018-01-13T15:11:23.295Z,11.77
2018-01-13T15:13:50.888Z,12.37
2018-01-13T15:16:19.209Z,11.85
2018-01-13T15:18:46.968Z,12.70
2018-01-13T15:21:14.561Z,13.00
2018-01-13T15:23:42.121Z,11.98
2018-01-13T15:26:09.722Z,13.65
2018-01-13T15:28:37.263Z,12.27
2018-01-13T15:31:05.632Z,11.77
2018-01-13T15:33:33.972Z,11.88
2018-01-13T15:36:01.534Z,13.62
2018-01-13T15:38:29.144Z,10.60
2018-01-13T15:40:57.467Z,12.43
2018-01-13T15:43:25.021Z,15.13
2018-01-13T15:45:52.589Z,12.63
2018-01-13T15:48:20.138Z,14.40
2018-01-13T15:50:47.731Z,23.20
2018-01-13T15:53:15.305Z,15.05
2018-01-13T15:55:42.861Z,15.15
2018-01-13T15:58:10.436Z,12.20
2018-01-13T16:00:38.771Z,14.98
2018-01-13T16:03:06.329Z,12.50
2018-01-13T16:05:33.902Z,14.43
2018-01-13T16:08:01.471Z,14.20
2018-01-13T16:10:29.064Z,12.75
2018-01-13T16:12:57.376Z,12.10
2018-01-13T16:15:24.915Z,15.30
2018-01-13T16:17:52.855Z,15.10
2018-01-13T16:20:21.182Z,14.00
2018-01-13T16:22:48.742Z,15.50
2018-01-13T16:25:18.985Z,15.00
2018-01-13T16:27:47.444Z,15.70
2018-01-13T16:30:15.023Z,15.23
2018-01-13T16:32:42.585Z,15.20
2018-01-13T16:35:10.360Z,17.17
2018-01-13T16:37:37.919Z,16.02
2018-01-13T16:40:05.482Z,15.82
2018-01-13T16:42:33.067Z,19.95
2018-01-13T16:45:01.385Z,19.33
2018-01-13T16:47:28.938Z,18.23
2018-01-13T16:49:56.505Z,19.02
2018-01-13T16:52:24.049Z,19.52
2018-01-13T16:54:51.643Z,19.20
2018-01-13T16:57:19.196Z,16.87
2018-01-13T16:59:46.767Z,17.25
2018-01-13T17:02:14.349Z,15.68
2018-01-13T17:04:42.672Z,15.10
2018-01-13T17:07:10.232Z,16.17
2018-01-13T17:09:37.827Z,17.10
2018-01-13T17:12:05.371Z,17.55
2018-01-13T17:14:32.959Z,19.60
2018-01-13T17:17:00.531Z,21.75
2018-01-13T17:19:28.868Z,24.95
2018-01-13T17:21:56.440Z,31.60
2018-01-13T17:24:23.996Z,46.60
2018-01-13T17:26:51.596Z,43.08
2018-01-13T17:29:19.937Z,32.75
2018-01-13T17:31:47.484Z,21.33
2018-01-13T17:34:15.033Z,25.12
2018-01-13T17:36:42.590Z,30.70
2018-01-13T17:39:10.132Z,24.55
2018-01-13T17:41:37.675Z,16.73
2018-01-13T17:44:05.998Z,18.00
2018-01-13T17:46:33.543Z,17.05
2018-01-13T17:49:01.079Z,16.45
2018-01-13T17:51:28.671Z,16.95
2018-01-13T17:53:56.218Z,17.20
2018-01-13T17:56:23.777Z,16.75
2018-01-13T17:58:51.339Z,17.90
2018-01-13T18:01:18.879Z,17.48
2018-01-13T18:03:46.443Z,17.17
2018-01-13T18:06:14.026Z,16.48
2018-01-13T18:08:41.583Z,18.02
2018-01-13T18:11:09.140Z,19.80
2018-01-13T18:13:36.708Z,18.33
2018-01-13T18:16:04.246Z,16.60
2018-01-13T18:18:31.815Z,19.62
2018-01-13T18:20:59.397Z,18.42
2018-01-13T18:23:26.967Z,18.00
2018-01-13T18:25:54.517Z,16.92
2018-01-13T18:28:22.089Z,17.23
2018-01-13T18:30:49.660Z,18.25
2018-01-13T18:33:17.237Z,15.65
2018-01-13T18:35:45.572Z,17.10
2018-01-13T18:38:13.134Z,18.45
2018-01-13T18:40:40.713Z,17.90
2018-01-13T18:43:09.788Z,14.40
2018-01-13T18:45:37.359Z,15.57
2018-01-13T18:48:04.921Z,15.18
2018-01-13T18:50:32.462Z,16.92
2018-01-13T18:53:00.042Z,16.55
2018-01-13T18:55:27.619Z,17.12
2018-01-13T18:57:57.400Z,14.73
2018-01-13T19:00:25.892Z,16.15
2018-01-13T19:02:53.444Z,15.68
2018-01-13T19:05:20.999Z,17.15
2018-01-13T19:07:48.591Z,16.90
2018-01-13T19:10:16.911Z,16.35
2018-01-13T19:12:44.504Z,15.00
2018-01-13T19:15:12.068Z,15.07
2018-01-13T19:17:39.625Z,18.02
2018-01-13T19:20:07.201Z,15.85
2018-01-13T19:22:34.754Z,15.70
2018-01-13T19:25:02.324Z,15.60
2018-01-13T19:27:30.679Z,19.17
2018-01-13T19:29:59.726Z,15.75
2018-01-13T19:32:27.309Z,16.52
2018-01-13T19:34:54.879Z,16.50
2018-01-13T19:37:23.483Z,17.70
2018-01-13T19:39:51.098Z,16.10
2018-01-13T19:42:18.657Z,16.40
2018-01-13T19:44:46.229Z,17.85
2018-01-13T19:47:13.771Z,14.65
2018-01-13T19:49:41.326Z,13.82
2018-01-13T19:52:08.905Z,16.65
2018-01-13T19:54:36.486Z,18.12
2018-01-13T19:57:04.049Z,16.70
2018-01-13T19:59:31.633Z,18.08
2018-01-13T20:01:59.184Z,14.75
2018-01-13T20:04:26.750Z,15.88
2018-01-13T20:06:54.329Z,15.07
2018-01-13T20:09:22.666Z,15.90
2018-01-13T20:11:50.226Z,16.67
2018-01-13T20:14:17.786Z,15.10
2018-01-13T20:16:45.351Z,15.85
2018-01-13T20:19:12.895Z,15.60
2018-01-13T20:21:40.481Z,16.52
2018-01-13T20:24:08.018Z,15.77
2018-01-13T20:26:35.578Z,16.20
2018-01-13T20:29:03.148Z,17.25
2018-01-13T20:31:30.719Z,16.62
2018-01-13T20:33:58.290Z,17.73
2018-01-13T20:36:26.600Z,15.98
2018-01-13T20:38:54.151Z,17.15
2018-01-13T20:41:21.752Z,15.52
2018-01-13T20:43:49.329Z,16.42
2018-01-13T20:46:16.903Z,15.65
2018-01-13T20:48:45.225Z,16.77
2018-01-13T20:51:12.825Z,18.27
2018-01-13T20:53:40.399Z,17.30
2018-01-13T20:56:08.740Z,16.98
2018-01-13T20:58:36.307Z,17.40
2018-01-13T21:01:03.865Z,17.42
2018-01-13T21:03:31.411Z,15.80
2018-01-13T21:05:58.971Z,16.55
2018-01-13T21:08:26.515Z,17.08
2018-01-13T21:10:54.092Z,16.98
2018-01-13T21:13:21.644Z,18.17
2018-01-13T21:15:49.187Z,19.95
2018-01-13T21:18:16.774Z,15.23
2018-01-13T21:20:44.329Z,15.95
2018-01-13T21:23:11.885Z,17.62
2018-01-13T21:25:39.439Z,16.50
2018-01-13T21:28:06.992Z,16.83
2018-01-13T21:30:34.578Z,16.27
2018-01-13T21:33:02.124Z,16.10
2018-01-13T21:35:29.672Z,19.00
2018-01-13T21:37:57.258Z,15.65
2018-01-13T21:40:24.818Z,15.45
2018-01-13T21:42:52.355Z,15.00
2018-01-13T21:45:19.906Z,16.67
2018-01-13T21:47:47.475Z,15.98
2018-01-13T21:50:15.071Z,15.85
2018-01-13T21:52:42.647Z,16.98
2018-01-13T21:55:10.969Z,16.50
2018-01-13T21:57:38.563Z,16.70
2018-01-13T22:00:06.121Z,16.52
2018-01-13T22:02:33.681Z,16.37
2018-01-13T22:05:01.287Z,16.27
2018-01-13T22:07:28.857Z,14.95
2018-01-13T22:09:56.408Z,17.95
2018-01-13T22:12:24.092Z,15.68
2018-01-13T22:14:51.635Z,17.12
2018-01-13T22:17:19.191Z,14.75
2018-01-13T22:19:46.776Z,16.25
2018-01-13T22:22:14.334Z,15.30
2018-01-13T22:24:41.907Z,17.33
2018-01-13T22:27:09.503Z,16.17
2018-01-13T22:29:37.825Z,16.25
2018-01-13T22:32:05.396Z,16.05
2018-01-13T22:34:32.967Z,15.50
2018-01-13T22:37:00.521Z,17.17
2018-01-13T22:39:28.081Z,15.63
2018-01-13T22:41:55.661Z,16.40
2018-01-13T22:44:23.213Z,17.37
2018-01-13T22:46:50.765Z,17.27
2018-01-13T22:49:18.340Z,14.93
2018-01-13T22:51:45.897Z,18.37
2018-01-13T22:54:13.482Z,16.15
2018-01-13T22:56:41.809Z,16.15
2018-01-13T22:59:09.369Z,14.90
2018-01-13T23:01:36.947Z,17.05
2018-01-13T23:04:04.527Z,17.45
2018-01-13T23:06:32.085Z,15.65
2018-01-13T23:08:59.665Z,15.95
2018-01-13T23:11:27.974Z,15.98
2018-01-13T23:13:55.547Z,15.02
2018-01-13T23:16:23.122Z,17.20
2018-01-13T23:18:50.675Z,17.27
2018-01-13T23:21:18.242Z,16.10
2018-01-13T23:23:45.779Z,17.15
2018-01-13T23:26:15.082Z,16.25
2018-01-13T23:28:42.647Z,16.83
2018-01-13T23:31:10.219Z,14.55
2018-01-13T23:33:37.777Z,15.35
2018-01-13T23:36:05.334Z,17.05
2018-01-13T23:38:32.902Z,16.65
2018-01-13T23:41:00.443Z,14.87
2018-01-13T23:43:28.016Z,16.95
2018-01-13T23:45:55.569Z,15.50
2018-01-13T23:48:23.121Z,15.82
2018-01-13T23:50:50.713Z,14.60
2018-01-13T23:53:19.048Z,15.38
2018-01-13T23:55:46.594Z,15.75
2018-01-13T23:58:14.182Z,15.88
